createdAt,value
2022-10-23T01:00:46.805Z,52.70
2022-10-23T01:03:22.487Z,53.10
2022-10-23T01:05:55.719Z,53.90
2022-10-23T01:08:36.491Z,53.00
2022-10-23T01:11:13.366Z,52.60
2022-10-23T01:13:51.398Z,52.20
2022-10-23T01:16:28.803Z,52.70
2022-10-23T01:19:10.835Z,52.60
2022-10-23T01:21:48.649Z,52.30
2022-10-23T01:24:37.116Z,52.00
2022-10-23T01:27:22.945Z,51.50
2022-10-23T01:30:02.015Z,51.60
2022-10-23T01:32:44.654Z,51.30
2022-10-23T01:35:17.555Z,52.00
2022-10-23T01:37:55.435Z,51.70
2022-10-23T01:40:28.604Z,52.40
2022-10-23T01:43:03.536Z,55.00
2022-10-23T01:45:40.769Z,55.60
2022-10-23T01:48:18.243Z,56.00
2022-10-23T01:50:48.382Z,55.20
2022-10-23T01:53:17.813Z,54.30
2022-10-23T01:55:47.557Z,54.70
2022-10-23T01:58:24.303Z,55.00
2022-10-23T02:00:57.655Z,54.20
2022-10-23T02:03:27.538Z,53.50
2022-10-23T02:05:55.889Z,54.80
2022-10-23T02:08:25.425Z,54.50
2022-10-23T02:11:00.731Z,53.40
2022-10-23T02:13:37.505Z,53.50
2022-10-23T02:16:13.789Z,53.30
2022-10-23T02:18:52.373Z,53.10
2022-10-23T02:21:31.047Z,52.60
2022-10-23T02:24:08.469Z,53.00
2022-10-23T02:26:44.486Z,52.80
2022-10-23T02:29:19.620Z,53.10
2022-10-23T02:31:48.666Z,54.80
2022-10-23T02:34:20.326Z,54.90
2022-10-23T02:36:48.776Z,55.10
2022-10-23T02:39:18.259Z,54.70
2022-10-23T02:41:50.389Z,54.60
2022-10-23T02:44:29.121Z,54.10
2022-10-23T02:47:09.255Z,54.20
2022-10-23T02:49:43.068Z,54.80
2022-10-23T02:52:19.800Z,56.20
2022-10-23T02:55:06.429Z,55.60
2022-10-23T02:57:52.404Z,55.10
2022-10-23T03:00:23.787Z,55.00
2022-10-23T03:03:00.808Z,55.10
2022-10-23T03:05:34.482Z,55.60
2022-10-23T03:08:05.056Z,55.30
2022-10-23T03:10:33.468Z,55.60
2022-10-23T03:13:01.613Z,56.40
2022-10-23T03:15:36.599Z,56.30
2022-10-23T03:18:04.930Z,56.90
2022-10-23T03:20:33.505Z,57.80
2022-10-23T03:23:01.629Z,57.00
2022-10-23T03:25:29.726Z,56.90
2022-10-23T03:28:00.211Z,57.60
2022-10-23T03:30:28.467Z,57.20
2022-10-23T03:32:58.303Z,57.30
2022-10-23T03:35:26.522Z,57.80
2022-10-23T03:37:54.801Z,58.30
2022-10-23T03:40:26.091Z,59.50
2022-10-23T03:42:54.237Z,59.30
2022-10-23T03:45:22.533Z,59.50
2022-10-23T03:47:51.750Z,59.50
2022-10-23T03:50:21.569Z,59.30
2022-10-23T03:52:50.062Z,59.00
2022-10-23T03:55:18.319Z,58.80
2022-10-23T03:57:46.379Z,58.40
2022-10-23T04:00:14.931Z,58.80
2022-10-23T04:02:48.420Z,58.90
2022-10-23T04:05:17.763Z,59.00
2022-10-23T04:07:56.084Z,59.60
2022-10-23T04:10:24.497Z,60.50
2022-10-23T04:12:52.673Z,61.30
2022-10-23T04:15:20.726Z,61.30
2022-10-23T04:17:48.913Z,61.40
2022-10-23T04:20:17.647Z,61.80
2022-10-23T04:22:46.153Z,61.80
2022-10-23T04:25:16.531Z,62.10
2022-10-23T04:27:44.890Z,62.00
2022-10-23T04:30:14.651Z,62.30
2022-10-23T04:32:43.018Z,62.30
2022-10-23T04:35:11.267Z,62.60
2022-10-23T04:37:39.768Z,63.50
2022-10-23T04:40:10.036Z,64.50
2022-10-23T04:42:41.893Z,65.40
2022-10-23T04:45:11.309Z,65.70
2022-10-23T04:47:41.986Z,65.30
2022-10-23T04:50:10.751Z,65.20
2022-10-23T04:52:58.497Z,65.60
2022-10-23T04:55:50.645Z,65.80
2022-10-23T04:58:27.412Z,67.60
2022-10-23T05:00:58.568Z,67.70
2022-10-23T05:03:27.986Z,67.60
2022-10-23T05:05:57.300Z,67.20
2022-10-23T05:08:51.661Z,66.80
2022-10-23T05:11:22.630Z,67.30
2022-10-23T05:13:53.807Z,65.90
2022-10-23T05:16:33.258Z,65.70
2022-10-23T05:19:02.238Z,65.50
2022-10-23T05:21:32.724Z,65.10
2022-10-23T05:24:02.726Z,64.80
2022-10-23T05:26:32.425Z,64.30
2022-10-23T05:29:07.340Z,64.10
2022-10-23T05:31:36.670Z,64.00
2022-10-23T05:34:13.540Z,64.20
2022-10-23T05:36:45.794Z,64.70
2022-10-23T05:39:15.599Z,65.20
2022-10-23T05:41:43.797Z,66.00
2022-10-23T05:44:13.880Z,66.00
2022-10-23T05:47:02.239Z,65.80
2022-10-23T05:49:42.183Z,65.40
2022-10-23T05:52:23.341Z,64.80
2022-10-23T05:55:08.251Z,64.30
2022-10-23T05:57:54.869Z,64.10
2022-10-23T06:00:40.831Z,63.90
2022-10-23T06:03:28.816Z,64.90
2022-10-23T06:05:58.240Z,64.50
2022-10-23T06:08:36.365Z,65.00
2022-10-23T06:11:09.250Z,64.70
2022-10-23T06:13:37.960Z,65.50
2022-10-23T06:16:15.421Z,65.90
2022-10-23T06:18:44.659Z,65.80
2022-10-23T06:21:16.744Z,67.80
2022-10-23T06:23:47.895Z,68.00
2022-10-23T06:26:18.001Z,69.00
2022-10-23T06:28:57.087Z,70.60
2022-10-23T06:31:28.173Z,70.50
2022-10-23T06:33:59.385Z,69.20
2022-10-23T06:36:28.843Z,69.40
2022-10-23T06:39:06.031Z,70.60
2022-10-23T06:42:12.849Z,69.70
2022-10-23T06:45:07.995Z,69.00
2022-10-23T06:48:12.715Z,68.90
2022-10-23T06:51:05.403Z,69.50
2022-10-23T06:53:46.417Z,70.60
2022-10-23T06:56:35.131Z,70.60
2022-10-23T06:59:07.677Z,69.60
2022-10-23T07:01:36.709Z,70.70
2022-10-23T07:04:07.517Z,70.70
2022-10-23T07:06:35.701Z,70.70
2022-10-23T07:09:04.366Z,70.90
2022-10-23T07:11:51.294Z,70.90
2022-10-23T07:14:21.779Z,70.90
2022-10-23T07:16:49.973Z,71.10
2022-10-23T07:19:19.958Z,71.10
2022-10-23T07:21:48.423Z,71.30
2022-10-23T07:24:26.579Z,71.30
2022-10-23T07:26:56.172Z,72.90
2022-10-23T07:29:26.344Z,74.10
2022-10-23T07:31:54.661Z,73.70
2022-10-23T07:34:30.134Z,72.60
2022-10-23T07:37:22.630Z,73.40
2022-10-23T07:39:50.858Z,74.30
2022-10-23T07:42:19.371Z,73.40
2022-10-23T07:44:47.853Z,72.80
2022-10-23T07:47:16.294Z,72.00
2022-10-23T07:49:50.399Z,72.40
2022-10-23T07:52:21.482Z,72.10
2022-10-23T07:55:10.703Z,72.10
2022-10-23T07:57:44.135Z,72.20
2022-10-23T08:02:59.569Z,70.60
2022-10-23T08:05:29.228Z,69.60
2022-10-23T08:08:01.356Z,69.40
2022-10-23T08:10:30.757Z,68.70
2022-10-23T08:12:59.761Z,68.00
2022-10-23T08:15:53.549Z,67.20
2022-10-23T08:18:45.566Z,67.40
2022-10-23T08:21:15.796Z,64.20
2022-10-23T08:23:47.128Z,62.70
2022-10-23T08:26:15.734Z,60.40
2022-10-23T08:28:44.167Z,60.00
2022-10-23T08:31:15.271Z,60.00
2022-10-23T08:33:53.116Z,59.70
2022-10-23T08:36:25.127Z,59.50
2022-10-23T08:38:54.833Z,56.20
2022-10-23T08:41:28.630Z,56.30
2022-10-23T08:44:14.514Z,56.10
2022-10-23T08:46:48.591Z,55.30
2022-10-23T08:49:48.963Z,54.70
2022-10-23T08:52:24.760Z,55.80
2022-10-23T08:55:06.537Z,56.20
2022-10-23T08:57:42.759Z,54.70
2022-10-23T09:00:15.551Z,51.60
2022-10-23T09:02:46.621Z,49.10
2022-10-23T09:05:18.337Z,50.80
2022-10-23T09:08:08.773Z,50.50
2022-10-23T09:10:50.666Z,52.00
2022-10-23T09:13:41.352Z,50.80
2022-10-23T09:16:20.786Z,53.70
2022-10-23T09:18:50.642Z,53.40
2022-10-23T09:21:18.992Z,52.60
2022-10-23T09:23:48.591Z,51.80
2022-10-23T09:26:18.678Z,50.10
2022-10-23T09:28:49.412Z,50.60
2022-10-23T09:31:18.596Z,48.60
2022-10-23T09:33:57.903Z,48.60
2022-10-23T09:36:29.231Z,49.50
2022-10-23T09:39:00.954Z,49.70
2022-10-23T09:41:34.028Z,49.30
2022-10-23T09:44:18.395Z,48.60
2022-10-23T09:49:20.865Z,47.70
2022-10-23T09:52:01.259Z,48.30
2022-10-23T09:54:33.197Z,47.50
2022-10-23T09:57:07.291Z,47.50
2022-10-23T09:59:35.527Z,46.10
2022-10-23T10:02:05.113Z,44.80
2022-10-23T10:04:50.712Z,46.30
2022-10-23T10:07:21.529Z,47.20
2022-10-23T10:09:51.500Z,47.70
2022-10-23T10:12:37.511Z,47.10
2022-10-23T10:15:16.941Z,48.20
2022-10-23T10:17:54.687Z,49.30
2022-10-23T10:20:44.410Z,47.50
2022-10-23T10:23:23.487Z,47.40
2022-10-23T10:26:01.367Z,48.40
2022-10-23T10:28:41.185Z,47.50
2022-10-23T10:31:18.085Z,47.40
2022-10-23T10:34:08.083Z,46.30
2022-10-23T10:36:45.947Z,44.60
2022-10-23T10:39:39.724Z,45.80
2022-10-23T10:42:39.629Z,43.90
2022-10-23T10:45:27.672Z,44.00
2022-10-23T10:48:20.437Z,44.30
2022-10-23T10:51:30.396Z,40.60
2022-10-23T10:54:26.359Z,41.10
2022-10-23T10:56:59.714Z,41.20
2022-10-23T10:59:32.319Z,40.30
2022-10-23T11:02:06.732Z,37.90
2022-10-23T11:04:42.002Z,38.80
2022-10-23T11:07:17.580Z,40.60
2022-10-23T11:09:46.610Z,40.40
2022-10-23T11:12:20.694Z,40.50
2022-10-23T11:14:52.956Z,40.50
2022-10-23T11:17:29.428Z,40.30
2022-10-23T11:20:04.342Z,40.10
2022-10-23T11:22:37.823Z,38.40
2022-10-23T11:25:37.905Z,38.50
2022-10-23T11:29:05.487Z,39.20
2022-10-23T11:31:59.020Z,38.40
2022-10-23T11:35:08.907Z,40.50
2022-10-23T11:37:37.779Z,40.10
2022-10-23T11:40:23.663Z,40.30
2022-10-23T11:42:54.714Z,42.80
2022-10-23T11:45:35.827Z,42.60
2022-10-23T11:48:07.781Z,39.90
2022-10-23T11:50:55.262Z,41.30
2022-10-23T11:53:38.671Z,40.50
2022-10-23T11:56:31.214Z,39.50
2022-10-23T11:59:12.711Z,39.60
2022-10-23T12:01:45.608Z,39.70
2022-10-23T12:04:28.588Z,38.70
2022-10-23T13:49:49.421Z,41.00
2022-10-23T13:52:58.411Z,41.00
2022-10-23T13:56:13.138Z,40.40
2022-10-23T14:03:51.902Z,41.30
2022-10-23T14:07:21.703Z,41.30
2022-10-23T14:14:26.262Z,42.60
2022-10-23T14:17:13.901Z,43.20
2022-10-23T14:23:39.511Z,44.10
2022-10-23T14:33:24.129Z,45.70
2022-10-23T14:36:30.887Z,44.40
2022-10-23T14:52:50.203Z,46.90
2022-10-23T14:56:36.755Z,46.00
2022-10-23T14:59:27.139Z,45.90
2022-10-23T15:06:42.019Z,46.60
2022-10-23T15:10:15.107Z,47.30
2022-10-23T15:14:48.146Z,48.00
2022-10-23T16:03:19.097Z,50.30
2022-10-23T16:06:11.960Z,50.00
2022-10-23T16:29:07.537Z,57.60
2022-10-23T16:32:01.032Z,58.60
2022-10-23T16:39:24.164Z,60.70
2022-10-23T16:42:29.088Z,60.80
2022-10-23T16:45:26.323Z,60.40
2022-10-23T16:48:17.373Z,60.40
2022-10-23T16:54:00.268Z,59.00
2022-10-23T17:07:03.307Z,56.90
2022-10-23T17:10:56.035Z,56.70
2022-10-23T17:13:35.152Z,56.30
2022-10-23T17:16:19.073Z,58.20
2022-10-23T17:19:08.611Z,59.80
2022-10-23T17:21:59.908Z,61.50
2022-10-23T17:24:53.116Z,62.50
2022-10-23T17:27:43.408Z,64.20
2022-10-23T17:30:30.402Z,64.20
2022-10-23T17:33:11.084Z,66.90
2022-10-23T17:36:23.471Z,65.90
2022-10-23T17:39:13.721Z,66.10
2022-10-23T17:41:55.407Z,64.90
2022-10-23T17:44:37.230Z,65.20
2022-10-23T17:47:40.344Z,67.50
2022-10-23T17:50:21.148Z,67.20
2022-10-23T17:52:58.314Z,69.50
2022-10-23T17:55:26.509Z,72.60
2022-10-23T17:57:54.742Z,77.40
2022-10-23T18:00:22.985Z,78.20
2022-10-23T18:02:56.894Z,79.30
2022-10-23T18:05:30.690Z,79.10
2022-10-23T18:08:12.382Z,78.50
2022-10-23T18:10:48.663Z,78.10
2022-10-23T18:13:28.249Z,76.60
2022-10-23T18:16:23.784Z,76.40
2022-10-23T18:19:00.708Z,76.50
2022-10-23T18:21:32.682Z,76.90
2022-10-23T18:24:06.953Z,76.60
2022-10-23T18:26:46.023Z,75.90
2022-10-23T18:29:24.378Z,75.10
2022-10-23T18:32:01.906Z,74.50
2022-10-23T18:34:36.868Z,72.30
2022-10-23T18:37:17.191Z,72.10
2022-10-23T18:40:55.659Z,71.10
2022-10-23T19:10:09.610Z,81.30
2022-10-23T19:34:28.521Z,88.10
2022-10-23T19:37:54.178Z,87.20
2022-10-23T19:45:06.130Z,84.00
2022-10-23T19:47:44.944Z,83.00
2022-10-23T19:50:33.515Z,82.90
2022-10-23T19:53:11.514Z,84.00
2022-10-23T19:55:53.273Z,84.10
2022-10-23T19:58:56.836Z,83.00
2022-10-23T20:08:24.689Z,81.30
2022-10-23T20:12:56.081Z,81.50
2022-10-23T20:20:45.993Z,81.00
2022-10-23T20:24:40.607Z,80.60
2022-10-23T20:32:03.778Z,81.30
2022-10-23T20:46:59.283Z,79.70
2022-10-23T22:02:44.721Z,79.40
2022-10-23T22:24:49.906Z,80.10
2022-10-23T22:32:29.284Z,81.30
2022-10-23T22:37:47.029Z,81.20
2022-10-23T22:45:48.288Z,83.00
2022-10-23T22:54:16.293Z,83.50
2022-10-23T22:58:19.348Z,82.70
2022-10-23T23:40:48.398Z,79.90
